Time;durP1;ratioP1;P1;durP2;ratioP2;P2;SDS_P1;SDS_P2;PMS_P1;PMS_P2;Temp;Humidity;BMP_temperature;BMP_pressure;BME280_temperature;BME280_humidity;BME280_pressure;Samples;Min_cycle;Max_cycle;Signal;HPM_P1;HPM_P2
2022/05/19 00:03:24;;;;;;;14.95;9.45;;;18.70;99.90;;;;;;4987134;28;20514;-42
2022/05/19 00:05:50;;;;;;;14.93;9.13;;;18.60;99.90;;;;;;4989040;28;20043;-44
2022/05/19 00:08:15;;;;;;;16.05;11.20;;;18.60;99.90;;;;;;4986425;28;20042;-42
2022/05/19 00:10:42;;;;;;;14.88;10.10;;;18.50;99.90;;;;;;4986480;28;20519;-42
2022/05/19 00:13:07;;;;;;;14.52;10.07;;;18.50;99.90;;;;;;4983658;28;20039;-42
2022/05/19 00:15:33;;;;;;;13.88;9.85;;;18.50;99.90;;;;;;4986270;28;20181;-49
2022/05/19 00:17:59;;;;;;;17.17;10.27;;;18.40;99.90;;;;;;4966697;28;20042;-45
2022/05/19 00:20:24;;;;;;;16.38;10.82;;;18.40;99.90;;;;;;4971105;28;20031;-42
2022/05/19 00:22:50;;;;;;;15.45;9.90;;;18.40;99.90;;;;;;4985293;28;20415;-42
2022/05/19 00:25:15;;;;;;;15.65;9.93;;;18.30;99.90;;;;;;4982439;28;20030;-42
2022/05/19 00:27:41;;;;;;;16.77;11.85;;;18.30;99.90;;;;;;4989425;28;20030;-45
2022/05/19 00:30:07;;;;;;;14.27;9.18;;;18.20;99.90;;;;;;4969278;28;20038;-47
2022/05/19 00:32:33;;;;;;;14.55;9.25;;;18.20;99.90;;;;;;4969673;28;20141;-44
2022/05/19 00:34:59;;;;;;;15.80;10.18;;;18.10;99.90;;;;;;4989285;28;20646;-43
2022/05/19 00:37:24;;;;;;;13.65;10.38;;;18.00;99.90;;;;;;4967977;28;20081;-51
2022/05/19 00:39:50;;;;;;;13.27;9.50;;;18.00;99.90;;;;;;4986315;28;20067;-42
2022/05/19 00:45:03;;;;;;;13.88;10.23;;;17.90;99.90;;;;;;4984936;28;20069;-42
2022/05/19 00:47:44;;;;;;;16.75;9.70;;;17.90;99.90;;;;;;4987277;28;20042;-43
2022/05/19 00:50:41;;;;;;;11.60;9.03;;;17.90;99.90;;;;;;4970757;28;20030;-44
2022/05/19 00:53:21;;;;;;;12.38;8.20;;;17.90;99.90;;;;;;4983677;28;20782;-42
2022/05/19 00:55:49;;;;;;;12.88;8.88;;;17.90;99.90;;;;;;4984361;28;21142;-43
2022/05/19 00:58:27;;;;;;;12.93;9.32;;;17.80;99.90;;;;;;4988837;28;20039;-44
2022/05/19 01:00:54;;;;;;;13.85;9.93;;;17.80;99.90;;;;;;4989338;28;20129;-42
2022/05/19 01:03:22;;;;;;;15.45;10.02;;;17.80;99.90;;;;;;4989453;28;20117;-43
2022/05/19 01:05:56;;;;;;;10.93;7.82;;;17.80;99.90;;;;;;4989418;28;20499;-44
2022/05/19 01:08:40;;;;;;;12.70;8.50;;;17.80;99.90;;;;;;4991076;28;20092;-46
2022/05/19 01:11:07;;;;;;;12.65;8.77;;;17.80;99.90;;;;;;4989290;28;20410;-46
2022/05/19 01:13:34;;;;;;;13.85;9.63;;;17.80;99.90;;;;;;4987648;28;20046;-45
2022/05/19 01:16:03;;;;;;;12.00;7.60;;;17.80;99.90;;;;;;4987784;28;20046;-41
2022/05/19 01:18:30;;;;;;;13.95;9.55;;;17.70;99.90;;;;;;4986972;28;20467;-43
2022/05/19 01:20:55;;;;;;;23.02;9.32;;;17.70;99.90;;;;;;4989508;28;20419;-42
2022/05/19 01:23:40;;;;;;;14.93;9.65;;;17.70;99.90;;;;;;4983050;28;20026;-48
2022/05/19 01:26:48;;;;;;;15.07;9.20;;;17.60;99.90;;;;;;4983117;28;20101;-44
2022/05/19 01:29:17;;;;;;;13.13;9.82;;;17.60;99.90;;;;;;4982888;28;20368;-43
2022/05/19 01:31:52;;;;;;;13.57;10.15;;;17.50;99.90;;;;;;4985788;28;20484;-42
2022/05/19 01:34:20;;;;;;;16.38;9.65;;;17.50;99.90;;;;;;4981721;28;20507;-42
2022/05/19 01:36:46;;;;;;;12.10;9.00;;;17.50;99.90;;;;;;4982554;28;20373;-44
2022/05/19 01:39:21;;;;;;;17.73;10.27;;;17.50;99.90;;;;;;4987692;28;20057;-43
2022/05/19 01:41:53;;;;;;;12.90;9.43;;;17.40;99.90;;;;;;4985944;28;20117;-46
2022/05/19 01:44:24;;;;;;;15.75;8.90;;;17.40;99.90;;;;;;4986037;28;20038;-42
2022/05/19 01:47:14;;;;;;;13.15;9.43;;;17.40;99.90;;;;;;4981778;28;20050;-46
2022/05/19 01:50:06;;;;;;;14.57;9.05;;;17.40;99.90;;;;;;4978109;28;20074;-44
2022/05/19 01:52:46;;;;;;;14.73;9.63;;;17.30;99.90;;;;;;4986705;28;20162;-41
2022/05/19 01:55:56;;;;;;;14.50;9.23;;;17.30;99.90;;;;;;4986381;28;20851;-43
2022/05/19 01:58:28;;;;;;;13.32;9.05;;;17.30;99.90;;;;;;4929701;28;20161;-46
2022/05/19 02:00:55;;;;;;;;;;;17.20;99.90;;;;;;4985059;28;20057;-44
2022/05/19 02:03:57;;;;;;;13.32;8.93;;;17.20;99.90;;;;;;4989166;28;19926;-45
2022/05/19 02:06:38;;;;;;;14.02;9.38;;;17.20;99.90;;;;;;4970320;28;20108;-42
2022/05/19 02:09:09;;;;;;;12.95;9.23;;;17.20;99.90;;;;;;4989355;28;20494;-44
2022/05/19 02:11:44;;;;;;;14.82;10.60;;;17.10;99.90;;;;;;4984756;28;20038;-45
2022/05/19 02:14:14;;;;;;;14.38;10.45;;;17.10;99.90;;;;;;4966549;28;20439;-44
2022/05/19 02:16:42;;;;;;;18.63;11.68;;;17.10;99.90;;;;;;4986943;28;20542;-45
2022/05/19 02:19:10;;;;;;;14.15;9.15;;;17.10;99.90;;;;;;4988445;28;20367;-42
2022/05/19 02:21:36;;;;;;;15.48;10.93;;;17.10;99.90;;;;;;4988087;28;20038;-43
2022/05/19 02:24:03;;;;;;;17.75;11.25;;;17.10;99.90;;;;;;4967113;28;20033;-44
2022/05/19 02:26:39;;;;;;;16.52;11.18;;;17.10;99.90;;;;;;4983877;28;20484;-42
2022/05/19 02:29:09;;;;;;;14.27;9.75;;;17.10;99.90;;;;;;4988998;28;20061;-42
2022/05/19 02:31:35;;;;;;;16.20;10.30;;;17.10;99.90;;;;;;4984080;28;20052;-43
2022/05/19 02:34:01;;;;;;;16.38;11.30;;;17.20;99.90;;;;;;4981532;28;20043;-43
2022/05/19 02:36:27;;;;;;;19.27;11.00;;;17.20;99.90;;;;;;4978709;28;20476;-42
2022/05/19 02:38:53;;;;;;;17.70;12.02;;;17.10;99.90;;;;;;4986137;28;20074;-42
2022/05/19 02:41:19;;;;;;;17.63;10.30;;;17.20;99.90;;;;;;4986489;28;20065;-42
2022/05/19 02:43:45;;;;;;;14.27;10.98;;;17.10;99.90;;;;;;4987061;28;20038;-42
2022/05/19 02:46:10;;;;;;;15.63;11.90;;;17.10;99.90;;;;;;4987344;28;20566;-42
2022/05/19 02:48:36;;;;;;;14.88;10.73;;;17.10;99.90;;;;;;4980580;28;20114;-44
2022/05/19 02:51:04;;;;;;;14.40;10.50;;;17.10;99.90;;;;;;4988978;28;20385;-42
2022/05/19 02:53:29;;;;;;;16.52;11.57;;;17.10;99.90;;;;;;4967439;28;20050;-44
2022/05/19 02:55:55;;;;;;;18.42;11.52;;;17.10;99.90;;;;;;4985124;28;20034;-44
2022/05/19 02:58:21;;;;;;;14.73;11.35;;;17.10;99.90;;;;;;4986886;28;20094;-43
2022/05/19 03:00:48;;;;;;;15.40;11.40;;;17.10;99.90;;;;;;4988147;28;20046;-44
2022/05/19 03:03:14;;;;;;;17.90;12.65;;;17.10;99.90;;;;;;4983484;28;20042;-43
2022/05/19 03:05:40;;;;;;;16.60;11.43;;;17.10;99.90;;;;;;4987238;28;20060;-42
2022/05/19 03:08:08;;;;;;;21.05;13.32;;;17.10;99.90;;;;;;4989998;28;20027;-43
2022/05/19 03:10:36;;;;;;;14.55;11.07;;;17.10;99.90;;;;;;4990135;28;20093;-41
2022/05/19 03:13:02;;;;;;;21.90;14.20;;;17.10;99.90;;;;;;4990462;28;20049;-45
2022/05/19 03:15:28;;;;;;;19.98;12.57;;;17.10;99.90;;;;;;4988820;28;20041;-44
2022/05/19 03:17:54;;;;;;;21.27;13.95;;;17.10;99.90;;;;;;4988614;28;20030;-42
2022/05/19 03:20:20;;;;;;;19.13;13.30;;;17.10;99.90;;;;;;4987830;28;20156;-46
2022/05/19 03:22:46;;;;;;;15.85;11.15;;;17.20;99.90;;;;;;4972071;28;20162;-42
2022/05/19 03:25:12;;;;;;;17.15;14.20;;;17.20;99.90;;;;;;4988216;28;20030;-42
2022/05/19 03:27:38;;;;;;;20.35;14.50;;;17.10;99.90;;;;;;4986785;28;20042;-42
2022/05/19 03:30:09;;;;;;;14.77;10.98;;;17.10;99.90;;;;;;4983661;28;20059;-46
2022/05/19 03:32:35;;;;;;;18.10;13.65;;;17.10;99.90;;;;;;4985134;28;20038;-42
2022/05/19 03:35:00;;;;;;;17.95;11.70;;;17.20;99.90;;;;;;4991509;28;20042;-44
2022/05/19 03:37:26;;;;;;;24.95;14.38;;;17.10;99.90;;;;;;4987981;28;20169;-44
2022/05/19 03:39:52;;;;;;;17.45;12.20;;;17.10;99.90;;;;;;4989605;28;20204;-42
2022/05/19 03:42:17;;;;;;;16.05;12.85;;;17.10;99.90;;;;;;4988326;28;20152;-42
2022/05/19 03:44:43;;;;;;;19.92;13.98;;;17.00;99.90;;;;;;4989593;28;20046;-42
2022/05/19 03:47:09;;;;;;;21.70;15.95;;;17.10;99.90;;;;;;4970950;28;20161;-42
2022/05/19 03:49:34;;;;;;;22.23;17.10;;;17.10;99.90;;;;;;4967658;28;20034;-42
2022/05/19 03:52:00;;;;;;;18.80;13.35;;;17.10;99.90;;;;;;4988276;28;20046;-45
2022/05/19 03:54:26;;;;;;;21.00;15.45;;;17.10;99.90;;;;;;4989967;28;20436;-42
2022/05/19 03:56:52;;;;;;;21.08;15.45;;;17.00;99.90;;;;;;4986507;28;20046;-41
2022/05/19 03:59:17;;;;;;;19.42;14.27;;;17.00;99.90;;;;;;4990220;28;20053;-43
2022/05/19 04:01:43;;;;;;;20.52;14.13;;;17.10;99.90;;;;;;4986916;28;20126;-43
2022/05/19 04:04:09;;;;;;;25.95;17.02;;;17.10;99.90;;;;;;4991675;28;20038;-43
2022/05/19 04:06:35;;;;;;;21.75;13.85;;;17.20;99.90;;;;;;4990962;28;20535;-43
2022/05/19 04:09:05;;;;;;;24.25;16.35;;;17.20;99.90;;;;;;4986739;28;20122;-44
2022/05/19 04:11:32;;;;;;;22.58;16.02;;;17.30;99.90;;;;;;4990549;28;20038;-43
2022/05/19 04:13:58;;;;;;;23.73;15.23;;;17.30;99.90;;;;;;4989872;28;20046;-41
2022/05/19 04:16:24;;;;;;;24.63;16.08;;;17.30;99.90;;;;;;4982998;28;20045;-42
2022/05/19 04:18:50;;;;;;;25.02;16.40;;;17.30;99.90;;;;;;4989973;28;20050;-42
2022/05/19 04:21:16;;;;;;;20.90;16.15;;;17.30;99.90;;;;;;4970223;28;20404;-42
2022/05/19 04:23:42;;;;;;;21.02;16.13;;;17.40;99.90;;;;;;4988120;28;20050;-41
2022/05/19 04:26:07;;;;;;;21.00;15.85;;;17.40;99.90;;;;;;4983802;28;20105;-45
2022/05/19 04:28:33;;;;;;;22.73;17.38;;;17.40;99.90;;;;;;4990581;28;20053;-42
2022/05/19 04:31:00;;;;;;;24.63;17.27;;;17.40;99.90;;;;;;4989839;28;20035;-42
2022/05/19 04:33:26;;;;;;;24.58;16.75;;;17.50;99.90;;;;;;4981642;28;20049;-42
2022/05/19 04:35:53;;;;;;;18.85;14.48;;;17.60;99.90;;;;;;4987808;28;20046;-41
2022/05/19 04:38:19;;;;;;;21.42;16.05;;;17.60;99.90;;;;;;4973422;28;20069;-42
2022/05/19 04:40:47;;;;;;;23.17;17.48;;;17.70;99.90;;;;;;4984107;28;20034;-42
2022/05/19 04:43:22;;;;;;;24.30;17.38;;;17.80;99.90;;;;;;4970483;28;20309;-43
2022/05/19 04:45:53;;;;;;;22.58;17.00;;;17.80;99.90;;;;;;4986262;28;20558;-44
2022/05/19 04:48:19;;;;;;;26.25;16.38;;;17.90;99.90;;;;;;4982239;28;20046;-41
2022/05/19 04:50:45;;;;;;;27.15;18.30;;;18.00;99.90;;;;;;4990270;28;20031;-41
2022/05/19 04:53:11;;;;;;;23.05;16.85;;;18.00;99.90;;;;;;4989462;28;20053;-42
2022/05/19 04:55:38;;;;;;;28.20;18.63;;;18.00;99.90;;;;;;4988336;28;20042;-42
2022/05/19 04:58:07;;;;;;;27.80;18.67;;;18.00;99.90;;;;;;4972463;28;20103;-41
2022/05/19 05:00:34;;;;;;;24.17;18.40;;;18.00;99.90;;;;;;4984948;28;20065;-40
2022/05/19 05:03:00;;;;;;;24.00;18.35;;;18.00;99.90;;;;;;4986225;28;20058;-43
2022/05/19 05:05:25;;;;;;;25.25;16.80;;;18.10;99.90;;;;;;4983676;28;20419;-44
2022/05/19 05:07:51;;;;;;;27.50;16.92;;;18.10;99.90;;;;;;4985542;28;20034;-45
2022/05/19 05:10:17;;;;;;;25.48;17.30;;;18.20;99.90;;;;;;4989777;28;20081;-40
2022/05/19 05:12:42;;;;;;;22.42;16.42;;;18.20;99.90;;;;;;4983761;28;20037;-41
2022/05/19 05:15:09;;;;;;;21.25;15.95;;;18.30;99.90;;;;;;4987944;28;20464;-42
2022/05/19 05:17:35;;;;;;;22.60;15.55;;;18.30;99.90;;;;;;4983911;28;20546;-42
2022/05/19 05:20:02;;;;;;;15.70;12.02;;;18.30;99.90;;;;;;4986594;28;20042;-42
2022/05/19 05:22:30;;;;;;;16.95;10.40;;;18.40;99.90;;;;;;4982818;28;20042;-40
2022/05/19 05:24:56;;;;;;;12.65;8.43;;;18.40;99.90;;;;;;4985240;28;20077;-43
2022/05/19 05:27:22;;;;;;;11.20;7.78;;;18.50;99.90;;;;;;4982667;28;20053;-45
2022/05/19 05:29:47;;;;;;;11.15;6.85;;;18.50;99.90;;;;;;4984759;28;20038;-41
2022/05/19 05:32:13;;;;;;;9.95;5.72;;;18.50;99.90;;;;;;4987277;28;20042;-42
2022/05/19 05:34:38;;;;;;;8.13;4.60;;;18.60;99.90;;;;;;4987954;28;20491;-42
2022/05/19 05:37:06;;;;;;;7.55;4.47;;;18.60;99.90;;;;;;4984171;28;20487;-42
2022/05/19 05:39:32;;;;;;;17.42;4.30;;;18.60;99.90;;;;;;4986463;28;20046;-46
2022/05/19 05:41:57;;;;;;;13.23;4.50;;;18.70;99.90;;;;;;4985126;28;20093;-42
2022/05/19 05:44:23;;;;;;;5.45;2.75;;;18.70;99.90;;;;;;4984086;28;20073;-42
2022/05/19 05:46:49;;;;;;;4.22;2.42;;;18.80;99.90;;;;;;4987765;28;20109;-42
2022/05/19 05:49:14;;;;;;;4.63;2.03;;;18.90;99.90;;;;;;4984796;28;20066;-41
2022/05/19 05:51:40;;;;;;;4.95;2.47;;;18.90;99.90;;;;;;4983795;28;20137;-43
2022/05/19 05:54:06;;;;;;;5.43;2.20;;;18.90;99.90;;;;;;4983547;28;20126;-43
2022/05/19 05:56:32;;;;;;;3.38;1.58;;;19.00;99.90;;;;;;4978960;28;20104;-41
2022/05/19 05:58:58;;;;;;;3.45;1.23;;;19.00;99.90;;;;;;4985205;28;20065;-42
2022/05/19 06:01:23;;;;;;;2.88;1.58;;;19.00;99.90;;;;;;4982665;28;20137;-41
2022/05/19 06:03:49;;;;;;;4.72;1.55;;;19.00;99.90;;;;;;4979446;28;20096;-42
2022/05/19 06:06:15;;;;;;;3.30;1.52;;;19.00;99.90;;;;;;4978961;28;20089;-45
2022/05/19 06:08:42;;;;;;;3.72;1.20;;;19.00;99.90;;;;;;4985681;28;20066;-42
2022/05/19 06:11:08;;;;;;;3.80;1.30;;;19.10;99.90;;;;;;4977312;28;20185;-42
2022/05/19 06:13:35;;;;;;;3.38;1.10;;;19.10;99.90;;;;;;4982902;28;20038;-41
2022/05/19 06:16:00;;;;;;;3.58;1.30;;;19.20;99.90;;;;;;4981326;28;20042;-42
2022/05/19 06:18:26;;;;;;;4.20;1.38;;;19.20;99.90;;;;;;4983681;28;20034;-43
2022/05/19 06:20:52;;;;;;;2.38;1.45;;;19.20;99.90;;;;;;4980096;28;20038;-42
2022/05/19 06:23:18;;;;;;;4.90;2.03;;;19.10;99.90;;;;;;4965919;28;20050;-41
2022/05/19 06:25:45;;;;;;;4.78;1.98;;;19.10;99.90;;;;;;4985224;28;20034;-41
2022/05/19 06:28:11;;;;;;;3.70;1.80;;;19.20;99.90;;;;;;4985447;28;20049;-40
2022/05/19 06:30:37;;;;;;;3.65;1.52;;;19.10;99.90;;;;;;4991136;28;20038;-41
2022/05/19 06:33:05;;;;;;;3.35;1.40;;;19.10;99.90;;;;;;4983229;28;20072;-42
2022/05/19 06:35:32;;;;;;;4.15;1.63;;;19.10;99.90;;;;;;4988670;28;20042;-42
2022/05/19 06:37:58;;;;;;;5.95;2.15;;;19.10;99.90;;;;;;4990181;28;20050;-41
2022/05/19 06:40:26;;;;;;;3.55;2.20;;;19.10;99.90;;;;;;4985496;28;20127;-43
2022/05/19 06:42:52;;;;;;;3.65;2.33;;;19.10;99.90;;;;;;4984959;28;20038;-41
2022/05/19 06:45:22;;;;;;;5.03;1.92;;;19.00;99.90;;;;;;4982767;28;20047;-41
2022/05/19 06:47:51;;;;;;;3.30;1.95;;;18.90;99.90;;;;;;4986716;28;20045;-42
2022/05/19 06:50:18;;;;;;;3.60;1.60;;;18.90;99.90;;;;;;4984828;28;20108;-41
2022/05/19 06:52:59;;;;;;;2.85;1.80;;;18.90;99.90;;;;;;4969681;28;20492;-40
2022/05/19 06:55:27;;;;;;;2.75;1.60;;;18.90;99.90;;;;;;4990443;28;20492;-41
2022/05/19 06:57:53;;;;;;;8.90;2.10;;;18.90;99.90;;;;;;4992648;28;20054;-40
2022/05/19 07:00:22;;;;;;;3.42;1.48;;;18.80;99.90;;;;;;4984144;28;20069;-42
2022/05/19 07:02:51;;;;;;;6.55;1.70;;;18.80;99.90;;;;;;4988792;28;20080;-41
2022/05/19 07:05:22;;;;;;;2.58;1.40;;;18.80;99.90;;;;;;4991009;28;20173;-40
2022/05/19 07:07:48;;;;;;;3.45;1.80;;;18.70;99.90;;;;;;4992241;28;20038;-40
2022/05/19 07:10:21;;;;;;;5.93;2.10;;;18.70;99.90;;;;;;4990821;28;20034;-40
2022/05/19 07:12:47;;;;;;;4.28;1.80;;;18.70;99.90;;;;;;4988856;28;20042;-40
2022/05/19 07:15:14;;;;;;;4.25;1.88;;;18.70;99.90;;;;;;4990413;28;20042;-40
2022/05/19 07:17:40;;;;;;;2.95;1.65;;;18.70;99.90;;;;;;4972351;28;20057;-40
2022/05/19 07:22:52;;;;;;;2.65;1.85;;;18.90;99.90;;;;;;4985087;28;20133;-40
2022/05/19 07:25:18;;;;;;;3.67;1.88;;;19.00;99.90;;;;;;4988411;28;20460;-40
2022/05/19 07:27:44;;;;;;;5.40;1.92;;;19.10;99.90;;;;;;4989951;28;20047;-40
2022/05/19 07:30:13;;;;;;;4.68;1.40;;;19.20;99.90;;;;;;4990509;28;20092;-40
2022/05/19 07:32:39;;;;;;;2.20;1.42;;;19.20;99.90;;;;;;4987916;28;20096;-40
2022/05/19 07:35:06;;;;;;;2.30;1.10;;;19.20;99.90;;;;;;4987127;28;20046;-39
2022/05/19 07:37:32;;;;;;;5.07;1.63;;;19.20;99.90;;;;;;4991238;28;20038;-39
2022/05/19 07:39:58;;;;;;;2.88;1.77;;;19.30;99.90;;;;;;4992283;28;20173;-41
2022/05/19 07:42:25;;;;;;;2.38;1.33;;;19.30;99.90;;;;;;4991650;28;20309;-43
2022/05/19 07:44:51;;;;;;;3.17;1.40;;;19.40;99.90;;;;;;4991788;28;20519;-39
2022/05/19 07:47:19;;;;;;;4.40;1.63;;;19.40;99.90;;;;;;4986807;28;20046;-46
2022/05/19 07:49:45;;;;;;;3.25;1.70;;;19.40;99.90;;;;;;4990176;28;20050;-39
2022/05/19 07:52:10;;;;;;;3.95;1.70;;;19.50;99.90;;;;;;4986996;28;20061;-39
2022/05/19 07:54:36;;;;;;;5.00;1.38;;;19.50;99.90;;;;;;4991413;28;20038;-40
2022/05/19 07:57:04;;;;;;;4.38;1.20;;;19.60;99.90;;;;;;4972837;28;20120;-43
2022/05/19 07:59:29;;;;;;;3.53;1.38;;;19.60;99.90;;;;;;4990800;28;20574;-40
2022/05/19 08:01:55;;;;;;;4.28;1.30;;;19.70;99.90;;;;;;4988904;28;20055;-41
2022/05/19 08:04:23;;;;;;;3.90;1.65;;;19.80;99.90;;;;;;4989915;28;20035;-40
2022/05/19 08:06:49;;;;;;;2.92;1.52;;;19.90;99.90;;;;;;4986391;28;20487;-39
2022/05/19 08:12:00;;;;;;;3.50;1.63;;;20.10;99.90;;;;;;4988682;28;20042;-40
2022/05/19 08:17:11;;;;;;;6.05;1.45;;;20.30;99.90;;;;;;4987244;28;20046;-41
2022/05/19 08:19:37;;;;;;;5.53;1.70;;;20.40;99.90;;;;;;4990896;28;20038;-39
2022/05/19 08:22:04;;;;;;;2.20;1.33;;;20.40;99.90;;;;;;4971799;28;20046;-40
2022/05/19 08:24:30;;;;;;;3.33;1.40;;;20.50;99.90;;;;;;4990737;28;20034;-40
2022/05/19 08:26:56;;;;;;;3.25;1.52;;;20.60;99.90;;;;;;4989219;28;20057;-40
2022/05/19 08:29:22;;;;;;;3.40;1.45;;;20.70;99.90;;;;;;4955410;28;20042;-40
2022/05/19 08:31:48;;;;;;;2.95;1.27;;;20.80;99.90;;;;;;4988394;28;20364;-40
2022/05/19 08:34:14;;;;;;;4.05;1.70;;;20.90;99.90;;;;;;4972760;28;20064;-40
2022/05/19 08:36:44;;;;;;;3.83;1.02;;;21.10;99.90;;;;;;4990186;28;20053;-41
2022/05/19 08:39:12;;;;;;;4.20;1.10;;;21.20;99.90;;;;;;4989618;28;20121;-43
2022/05/19 08:41:43;;;;;;;3.42;1.30;;;21.20;99.90;;;;;;4989825;28;20038;-41
2022/05/19 08:44:41;;;;;;;2.00;1.05;;;21.30;99.90;;;;;;4987396;28;20050;-40
2022/05/19 08:47:09;;;;;;;3.83;1.05;;;21.50;99.90;;;;;;4975478;28;20081;-43
2022/05/19 08:49:55;;;;;;;3.05;1.35;;;21.60;99.90;;;;;;4985859;28;20463;-40
2022/05/19 08:52:23;;;;;;;4.47;1.02;;;21.70;99.90;;;;;;4989751;28;20096;-40
2022/05/19 08:54:53;;;;;;;2.90;1.60;;;21.90;99.90;;;;;;4988925;28;20042;-43
2022/05/19 08:57:30;;;;;;;2.50;1.10;;;22.00;99.90;;;;;;4982983;28;20046;-43
2022/05/19 09:00:07;;;;;;;2.58;1.20;;;22.10;99.90;;;;;;4987405;28;20233;-41
2022/05/19 09:03:14;;;;;;;4.20;1.30;;;22.20;99.90;;;;;;4981956;28;20045;-42
2022/05/19 09:05:54;;;;;;;2.67;1.00;;;22.30;99.90;;;;;;4988551;28;20073;-43
2022/05/19 09:08:46;;;;;;;1.33;0.70;;;22.40;99.90;;;;;;4985897;28;20038;-41
2022/05/19 09:11:14;;;;;;;4.13;1.05;;;22.40;99.90;;;;;;4987862;28;20030;-41
2022/05/19 09:14:03;;;;;;;1.95;0.90;;;22.60;99.90;;;;;;4986266;28;20388;-42
2022/05/19 09:16:38;;;;;;;2.70;0.93;;;22.70;99.90;;;;;;4983787;28;20045;-42
2022/05/19 09:19:23;;;;;;;2.40;0.90;;;22.90;99.60;;;;;;4989519;28;20048;-41
2022/05/19 09:22:07;;;;;;;2.33;0.80;;;23.10;98.30;;;;;;4988334;28;20136;-42
2022/05/19 09:24:33;;;;;;;1.58;0.88;;;23.20;97.80;;;;;;4983396;28;20034;-47
2022/05/19 09:27:01;;;;;;;1.60;0.68;;;23.30;97.40;;;;;;4989156;28;20571;-41
2022/05/19 09:29:42;;;;;;;1.70;0.50;;;23.40;96.90;;;;;;4986503;28;20039;-42
2022/05/19 09:32:30;;;;;;;2.38;0.90;;;23.50;94.30;;;;;;4987657;28;20044;-42
2022/05/19 09:35:20;;;;;;;2.30;0.95;;;23.70;92.90;;;;;;4989460;28;20456;-41
2022/05/19 09:37:49;;;;;;;2.45;0.82;;;23.70;92.60;;;;;;4979616;28;20074;-40
2022/05/19 09:40:30;;;;;;;2.00;0.80;;;23.70;93.40;;;;;;4989945;28;20038;-40
2022/05/19 09:43:15;;;;;;;1.42;0.82;;;23.70;93.80;;;;;;4986950;28;20069;-41
2022/05/19 09:45:47;;;;;;;2.45;1.20;;;23.70;92.80;;;;;;4990359;28;20543;-42
2022/05/19 09:48:13;;;;;;;2.83;0.80;;;23.70;93.30;;;;;;4983516;28;20203;-41
2022/05/19 09:50:48;;;;;;;1.65;0.70;;;23.70;93.00;;;;;;4986378;28;20590;-41
2022/05/19 09:53:20;;;;;;;1.67;0.88;;;23.70;92.30;;;;;;4970079;28;20131;-43
2022/05/19 09:55:53;;;;;;;2.10;0.90;;;23.70;93.10;;;;;;4968091;28;20471;-41
2022/05/19 09:58:19;;;;;;;1.30;0.80;;;23.60;93.20;;;;;;4987906;28;20042;-41
2022/05/19 10:00:49;;;;;;;2.00;0.90;;;23.60;93.70;;;;;;4981468;28;20677;-42
2022/05/19 10:03:37;;;;;;;7.30;1.30;;;23.50;93.30;;;;;;4985882;28;20107;-42
2022/05/19 10:06:06;;;;;;;2.08;1.00;;;23.50;92.40;;;;;;4987706;28;20057;-47
2022/05/19 10:08:42;;;;;;;2.75;1.00;;;23.50;93.20;;;;;;4990531;28;20039;-41
2022/05/19 10:11:21;;;;;;;4.35;1.35;;;23.50;92.80;;;;;;4983782;28;20085;-40
2022/05/19 10:13:56;;;;;;;1.90;1.10;;;23.50;91.80;;;;;;4987311;28;20046;-41
2022/05/19 10:16:42;;;;;;;3.20;2.00;;;23.50;93.00;;;;;;4985900;28;20046;-42
2022/05/19 10:19:35;;;;;;;2.85;1.70;;;23.80;92.00;;;;;;4988109;28;20046;-40
2022/05/19 10:22:03;;;;;;;;;;;24.20;91.20;;;;;;4984939;28;20121;-42
2022/05/19 10:24:55;;;;;;;4.43;1.17;;;24.30;90.60;;;;;;4990631;28;19926;-45
2022/05/19 10:33:42;;;;;;;3.97;1.67;;;24.80;91.30;;;;;;4986935;28;20042;-42
2022/05/19 10:36:20;;;;;;;3.83;2.08;;;25.10;90.30;;;;;;4987221;28;20049;-44
2022/05/19 10:39:11;;;;;;;4.35;2.17;;;25.30;90.40;;;;;;4985169;28;20041;-42
2022/05/19 10:41:52;;;;;;;3.67;1.63;;;25.60;88.50;;;;;;4973496;28;20152;-45
2022/05/19 10:44:38;;;;;;;2.95;1.55;;;25.80;86.20;;;;;;4986153;28;20121;-41
2022/05/19 10:47:26;;;;;;;2.20;1.20;;;26.00;85.60;;;;;;4970847;28;20038;-42
2022/05/19 10:50:10;;;;;;;1.83;1.17;;;26.20;85.80;;;;;;4983254;28;20061;-41
2022/05/19 10:53:14;;;;;;;1.52;0.88;;;26.30;82.70;;;;;;4985483;28;20129;-42
2022/05/19 10:56:07;;;;;;;1.55;1.00;;;26.30;81.70;;;;;;4967208;28;20046;-42
2022/05/19 10:58:54;;;;;;;3.42;1.10;;;26.60;80.10;;;;;;4969536;28;20646;-41
2022/05/19 11:02:17;;;;;;;5.43;1.50;;;26.80;76.50;;;;;;4987068;28;20043;-42
2022/05/19 11:04:42;;;;;;;;;;;26.80;73.70;;;;;;4925504;29;20098;-41
2022/05/19 11:07:23;;;;;;;1.95;1.15;;;26.90;70.00;;;;;;4928228;29;19926;-41
2022/05/19 11:10:15;;;;;;;2.83;1.55;;;27.00;67.80;;;;;;4962994;28;20500;-45
2022/05/19 11:13:16;;;;;;;3.63;1.50;;;27.00;64.80;;;;;;4989732;28;20038;-42
2022/05/19 11:15:56;;;;;;;6.13;2.42;;;27.10;67.10;;;;;;4990413;28;20039;-48
2022/05/19 11:18:54;;;;;;;4.78;1.30;;;27.20;57.50;;;;;;4991883;28;20037;-41
2022/05/19 11:21:26;;;;;;;3.10;1.70;;;27.00;56.30;;;;;;4991954;28;20140;-42
2022/05/19 11:24:10;;;;;;;;;;;26.90;56.20;;;;;;4976959;28;20042;-42
2022/05/19 11:27:09;;;;;;;3.90;1.85;;;26.80;56.20;;;;;;4991119;28;19917;-43
2022/05/19 11:29:42;;;;;;;4.93;1.98;;;26.80;58.00;;;;;;4974151;28;20046;-41
2022/05/19 11:32:22;;;;;;;3.60;1.65;;;26.80;57.90;;;;;;4988658;28;20062;-41
2022/05/19 11:34:47;;;;;;;2.65;2.00;;;26.80;57.20;;;;;;4988569;28;20049;-43
2022/05/19 11:37:35;;;;;;;5.82;2.05;;;26.80;61.10;;;;;;4990514;28;20602;-44
2022/05/19 11:40:17;;;;;;;5.30;2.60;;;26.70;61.80;;;;;;4992500;28;20042;-41
2022/05/19 11:42:50;;;;;;;4.30;2.85;;;26.70;64.00;;;;;;4987235;28;20039;-41
2022/05/19 11:45:38;;;;;;;4.43;2.60;;;26.60;64.80;;;;;;4991173;28;20413;-41
2022/05/19 11:57:42;;;;;;;16.77;3.78;;;26.00;68.30;;;;;;4983460;28;20566;-41
2022/05/19 12:00:12;;;;;;;4.70;2.42;;;25.80;70.70;;;;;;4988058;28;21343;-42
2022/05/19 12:02:50;;;;;;;3.63;2.38;;;25.70;73.10;;;;;;4987881;28;20047;-42
2022/05/19 12:05:31;;;;;;;2.50;1.60;;;25.50;72.60;;;;;;4991176;28;20145;-41
2022/05/19 12:08:06;;;;;;;2.95;1.70;;;25.30;72.20;;;;;;4984331;28;20043;-46
2022/05/19 12:10:36;;;;;;;5.28;1.67;;;25.10;74.00;;;;;;4970743;28;20113;-40
2022/05/19 12:13:03;;;;;;;3.13;1.80;;;25.00;73.20;;;;;;4988003;28;20126;-41
2022/05/19 12:15:39;;;;;;;4.38;1.80;;;24.90;74.60;;;;;;4987415;28;20034;-43
2022/05/19 12:18:23;;;;;;;2.47;1.60;;;24.80;76.60;;;;;;4987936;28;20053;-42
2022/05/19 12:20:59;;;;;;;3.55;2.00;;;24.70;78.00;;;;;;4985464;28;20044;-41
2022/05/19 12:23:31;;;;;;;3.42;2.00;;;24.60;79.80;;;;;;4958309;28;20100;-42
2022/05/19 12:26:17;;;;;;;4.15;1.70;;;24.40;82.00;;;;;;4971322;28;20583;-42
2022/05/19 12:28:51;;;;;;;2.95;1.20;;;24.20;82.90;;;;;;4985494;28;20039;-41
2022/05/19 12:34:22;;;;;;;3.45;1.80;;;24.00;86.00;;;;;;4985956;28;20361;-42
2022/05/19 12:37:33;;;;;;;3.90;1.70;;;23.80;87.00;;;;;;4967072;28;20038;-41
2022/05/19 12:40:23;;;;;;;7.13;2.72;;;23.70;91.30;;;;;;4991794;28;20042;-43
2022/05/19 12:42:49;;;;;;;3.92;2.40;;;23.50;93.10;;;;;;4988513;28;20489;-43
2022/05/19 12:45:21;;;;;;;6.47;2.42;;;23.20;93.40;;;;;;4988679;28;20039;-42
2022/05/19 12:48:00;;;;;;;5.50;2.20;;;22.90;95.00;;;;;;4985322;28;20042;-42
2022/05/19 12:50:51;;;;;;;7.53;3.50;;;22.70;96.40;;;;;;4986392;28;20077;-44
2022/05/19 12:53:23;;;;;;;5.28;3.40;;;22.20;99.90;;;;;;4988925;28;20057;-44
2022/05/19 12:55:57;;;;;;;11.40;4.05;;;21.60;99.90;;;;;;4989660;28;20522;-42
2022/05/19 12:58:39;;;;;;;9.40;4.20;;;21.10;99.90;;;;;;4984437;28;20043;-44
2022/05/19 13:01:29;;;;;;;5.45;3.58;;;20.50;99.90;;;;;;4984251;28;20055;-46
2022/05/19 13:04:36;;;;;;;6.13;3.60;;;20.00;99.90;;;;;;4989921;28;20112;-46
2022/05/19 13:07:24;;;;;;;8.57;3.53;;;19.60;99.90;;;;;;4987969;28;20368;-47
2022/05/19 13:10:08;;;;;;;6.85;3.03;;;19.30;99.90;;;;;;4968061;28;20046;-46
2022/05/19 13:13:02;;;;;;;6.35;2.38;;;19.10;99.90;;;;;;4962641;28;20146;-46
2022/05/19 13:15:34;;;;;;;5.07;2.60;;;19.00;99.90;;;;;;4986511;28;20054;-45
2022/05/19 13:18:06;;;;;;;4.32;2.47;;;18.80;99.90;;;;;;4984219;28;20181;-44
2022/05/19 13:20:38;;;;;;;5.22;2.65;;;18.80;99.90;;;;;;4973688;28;20042;-47
2022/05/19 13:23:19;;;;;;;4.93;2.20;;;18.70;99.90;;;;;;4970870;28;20046;-44
2022/05/19 13:25:48;;;;;;;5.05;2.10;;;18.70;99.90;;;;;;4982975;28;20578;-46
2022/05/19 13:31:24;;;;;;;4.60;1.67;;;18.70;99.90;;;;;;4983466;28;20047;-43
2022/05/19 13:33:55;;;;;;;5.32;2.38;;;18.80;99.90;;;;;;4980606;28;20112;-44
2022/05/19 13:36:31;;;;;;;7.47;1.77;;;18.80;99.90;;;;;;4990534;28;20475;-43
2022/05/19 13:39:14;;;;;;;3.45;2.30;;;18.80;99.90;;;;;;4988044;28;20499;-42
2022/05/19 13:41:49;;;;;;;3.05;1.63;;;18.90;99.90;;;;;;4985353;28;20042;-43